Time;durP1;ratioP1;P1;durP2;ratioP2;P2;SDS_P1;SDS_P2;PMS_P1;PMS_P2;Temp;Humidity;BMP_temperature;BMP_pressure;BME280_temperature;BME280_humidity;BME280_pressure;Samples;Min_cycle;Max_cycle;Signal;HPM_P1;HPM_P2
2022/11/18 00:00:34;;;;;;;6.40;4.22;;;;;;;12.91;100.00;92891.19;5068563;28;20035;-91
2022/11/18 00:03:06;;;;;;;316.52;16.13;;;;;;;12.71;100.00;92891.63;5085377;28;20031;-91
2022/11/18 00:05:34;;;;;;;1030.27;58.10;;;;;;;12.81;100.00;92901.00;5069673;28;20355;-91
2022/11/18 00:08:12;;;;;;;25.55;3.75;;;;;;;12.77;100.00;92886.19;5085383;28;20066;-92
2022/11/18 00:10:45;;;;;;;7.70;2.78;;;;;;;12.78;100.00;92893.75;5085559;28;20432;-92
2022/11/18 00:16:02;;;;;;;8.90;2.80;;;;;;;12.72;100.00;92868.72;5087932;28;20035;-91
2022/11/18 00:18:30;;;;;;;171.80;9.77;;;;;;;12.75;100.00;92869.97;5068038;28;20042;-90
2022/11/18 00:21:00;;;;;;;6.43;1.65;;;;;;;12.99;100.00;92864.09;5068430;28;20023;-91
2022/11/18 00:23:26;;;;;;;5.18;1.48;;;;;;;13.08;100.00;92867.47;5068552;28;20073;-91
2022/11/18 00:25:54;;;;;;;7.72;2.10;;;;;;;13.16;100.00;92863.22;5084873;28;20039;-90
2022/11/18 00:28:19;;;;;;;12.18;1.73;;;;;;;13.23;100.00;92874.00;5068505;28;20035;-91
2022/11/18 00:30:45;;;;;;;6.85;1.73;;;;;;;13.18;100.00;92860.25;5068342;28;20322;-91
2022/11/18 00:33:12;;;;;;;5.30;1.58;;;;;;;13.25;100.00;92866.56;5101787;28;20032;-91
2022/11/18 00:35:40;;;;;;;3.50;1.58;;;;;;;13.03;100.00;92857.09;5068672;28;20085;-92
2022/11/18 00:38:13;;;;;;;4.70;2.63;;;;;;;13.09;100.00;92866.38;5085184;28;20032;-91
2022/11/18 00:40:38;;;;;;;8.27;1.80;;;;;;;13.06;100.00;92859.13;5069502;28;20424;-92
2022/11/18 00:43:04;;;;;;;3.90;2.25;;;;;;;12.96;100.00;92860.25;5067984;28;20051;-91
2022/11/18 00:45:31;;;;;;;13.02;2.20;;;;;;;12.82;100.00;92871.00;5068826;28;20465;-91
2022/11/18 00:47:57;;;;;;;4.18;1.75;;;;;;;12.84;100.00;92858.31;5068897;28;20035;-91
2022/11/18 00:50:29;;;;;;;10.65;2.05;;;;;;;13.08;100.00;92861.41;5068557;28;20027;-91
2022/11/18 00:52:55;;;;;;;14.90;2.20;;;;;;;12.99;100.00;92848.31;5084749;28;20028;-92
2022/11/18 00:55:22;;;;;;;4.28;1.52;;;;;;;13.08;100.00;92851.69;5064774;28;20706;-93
2022/11/18 00:57:50;;;;;;;5.95;1.55;;;;;;;13.16;100.00;92855.34;5081911;28;20078;-91
2022/11/18 01:00:18;;;;;;;11.20;1.50;;;;;;;13.21;100.00;92859.66;5081696;28;20073;-91
2022/11/18 01:02:43;;;;;;;6.43;1.63;;;;;;;13.19;100.00;92869.69;5081923;28;20344;-90
2022/11/18 01:05:09;;;;;;;5.25;1.15;;;;;;;13.39;100.00;92866.31;5081421;28;20028;-91
2022/11/18 01:07:35;;;;;;;12.77;1.13;;;;;;;13.56;100.00;92867.28;5080865;28;20036;-90
2022/11/18 01:10:01;;;;;;;5.90;1.50;;;;;;;13.60;100.00;92865.53;5099676;28;20073;-90
2022/11/18 01:15:20;;;;;;;;;;;;;;;;;;;;;
2022/11/18 01:17:46;;;;;;;326.30;16.90;;;;;;;13.11;100.00;92876.53;5082759;28;20324;-91
2022/11/18 01:20:13;;;;;;;733.17;36.97;;;;;;;12.56;100.00;92864.00;5097951;28;20031;-91
2022/11/18 01:22:39;;;;;;;5.07;2.40;;;;;;;12.49;100.00;92861.13;5081228;28;20032;-90
2022/11/18 01:25:04;;;;;;;73.68;7.55;;;;;;;12.61;100.00;92864.91;5081068;28;20042;-90
2022/11/18 01:27:30;;;;;;;746.05;38.70;;;;;;;12.36;100.00;92870.72;5099278;28;20024;-91
2022/11/18 01:29:55;;;;;;;48.60;9.65;;;;;;;12.63;100.00;92871.41;5081291;28;20094;-90
2022/11/18 01:32:23;;;;;;;168.07;12.10;;;;;;;12.23;100.00;92867.25;5081145;28;20024;-91
2022/11/18 01:34:51;;;;;;;628.67;36.40;;;;;;;12.19;100.00;92866.31;5081084;28;20050;-91
2022/11/18 01:37:16;;;;;;;100.93;12.27;;;;;;;12.46;100.00;92869.59;5098854;28;20020;-91
2022/11/18 01:39:44;;;;;;;451.85;25.35;;;;;;;12.42;100.00;92873.97;5064177;28;20035;-91
2022/11/18 01:45:13;;;;;;;145.02;13.05;;;;;;;12.32;100.00;92876.94;5095627;28;20040;-84
2022/11/18 01:47:44;;;;;;;25.42;8.15;;;;;;;12.62;100.00;92863.81;5082671;28;20067;-86
2022/11/18 01:50:11;;;;;;;443.58;25.67;;;;;;;12.46;100.00;92861.72;5080294;28;20471;-84
2022/11/18 01:52:37;;;;;;;76.18;10.50;;;;;;;12.42;100.00;92858.19;5080399;28;20428;-84
2022/11/18 01:55:10;;;;;;;492.73;28.88;;;;;;;12.09;100.00;92861.41;5080396;28;20028;-86
2022/11/18 01:57:35;;;;;;;499.65;27.83;;;;;;;11.90;100.00;92845.97;5080751;28;20066;-86
2022/11/18 02:00:04;;;;;;;422.75;25.52;;;;;;;11.88;100.00;92835.78;5060039;28;20127;-86
2022/11/18 02:02:32;;;;;;;96.13;13.10;;;;;;;11.73;100.00;92840.44;5060051;28;20423;-86
2022/11/18 02:04:59;;;;;;;196.75;11.45;;;;;;;11.77;100.00;92831.97;5060166;28;20032;-86
2022/11/18 02:07:25;;;;;;;11.98;3.90;;;;;;;11.97;100.00;92823.44;5060087;28;20448;-86
2022/11/18 02:09:52;;;;;;;7.57;4.10;;;;;;;12.15;100.00;92824.19;5059930;28;20028;-86
2022/11/18 02:12:18;;;;;;;3.25;1.05;;;;;;;12.49;100.00;92815.69;5043392;28;20071;-86
2022/11/18 02:14:44;;;;;;;4.25;2.58;;;;;;;12.59;100.00;92804.81;5060010;28;20082;-86
2022/11/18 02:17:29;;;;;;;4.35;2.40;;;;;;;12.27;100.00;92784.13;5059991;28;20036;-87
2022/11/18 02:20:16;;;;;;;6.50;1.20;;;;;;;12.64;100.00;92791.50;5060247;28;20105;-86
2022/11/18 02:23:20;;;;;;;6.75;1.27;;;;;;;12.54;100.00;92779.50;5077775;28;20429;-86
2022/11/18 02:26:09;;;;;;;4.38;1.42;;;;;;;12.46;100.00;92766.41;5068013;28;20086;-86
2022/11/18 02:29:03;;;;;;;6.97;1.00;;;;;;;12.86;100.00;92756.25;5080004;28;20031;-86
2022/11/18 02:31:46;;;;;;;4.10;0.93;;;;;;;12.95;100.00;92737.78;5062867;28;20024;-86
2022/11/18 02:34:33;;;;;;;34.88;4.47;;;;;;;12.73;100.00;92744.13;5079854;28;20028;-86
2022/11/18 02:37:04;;;;;;;438.08;25.52;;;;;;;11.64;100.00;92744.50;5079800;28;20028;-86
2022/11/18 02:39:48;;;;;;;614.42;34.85;;;;;;;11.87;100.00;92737.94;5062976;28;20043;-86
2022/11/18 02:42:15;;;;;;;535.55;35.53;;;;;;;11.85;100.00;92739.34;5046551;28;20032;-86
2022/11/18 02:44:44;;;;;;;58.15;15.13;;;;;;;12.09;100.00;92725.66;5062701;28;20088;-86
2022/11/18 02:47:12;;;;;;;456.25;28.40;;;;;;;11.86;100.00;92722.50;5079369;28;20023;-86
2022/11/18 02:49:41;;;;;;;368.63;21.52;;;;;;;11.61;100.00;92685.53;5079718;28;20028;-86
2022/11/18 02:52:08;;;;;;;576.28;33.13;;;;;;;10.91;100.00;92677.88;5078976;28;20446;-86
2022/11/18 02:54:35;;;;;;;305.25;22.17;;;;;;;10.92;100.00;92666.31;5062934;28;20122;-86
2022/11/18 02:57:01;;;;;;;14.23;7.55;;;;;;;11.08;100.00;92669.19;5079587;28;20062;-86
2022/11/18 02:59:27;;;;;;;20.52;9.98;;;;;;;10.79;100.00;92653.06;5062400;28;20028;-86
2022/11/18 03:01:53;;;;;;;64.07;12.45;;;;;;;11.20;100.00;92664.09;5062360;28;20344;-85
2022/11/18 03:04:19;;;;;;;9.02;2.33;;;;;;;11.74;100.00;92634.72;5062675;28;20434;-85
2022/11/18 03:07:09;;;;;;;3.05;1.02;;;;;;;13.12;100.00;92634.34;5079039;28;20024;-84
2022/11/18 03:09:37;;;;;;;5.20;2.22;;;;;;;12.92;100.00;92648.31;5097404;28;20032;-86
2022/11/18 03:12:38;;;;;;;7.72;2.53;;;;;;;12.58;100.00;92651.66;5062106;28;20035;-86
2022/11/18 03:15:35;;;;;;;7.53;1.40;;;;;;;12.96;100.00;92649.19;5096703;28;20452;-85
2022/11/18 03:18:15;;;;;;;8.18;1.08;;;;;;;12.81;100.00;92643.44;5043595;28;20040;-86
2022/11/18 03:20:47;;;;;;;2.30;1.02;;;;;;;12.68;100.00;92633.97;5062020;28;20028;-86
2022/11/18 03:23:58;;;;;;;4.07;1.15;;;;;;;13.00;100.00;92650.84;5079140;28;20043;-85
2022/11/18 03:26:29;;;;;;;8.50;1.15;;;;;;;12.98;100.00;92660.94;5078909;28;20028;-86
2022/11/18 03:29:11;;;;;;;2.20;0.80;;;;;;;13.03;100.00;92669.69;5078769;28;20451;-86
2022/11/18 03:31:41;;;;;;;3.03;1.02;;;;;;;13.10;100.00;92678.59;5096496;28;20035;-85
2022/11/18 03:34:17;;;;;;;6.57;1.08;;;;;;;13.22;100.00;92700.75;5062304;28;20429;-86
2022/11/18 03:36:53;;;;;;;4.15;0.90;;;;;;;13.33;100.00;92720.28;5062305;28;20035;-86
2022/11/18 03:39:20;;;;;;;10.00;1.42;;;;;;;13.45;100.00;92714.34;5062219;28;20088;-85
2022/11/18 03:41:51;;;;;;;3.00;1.13;;;;;;;13.75;100.00;92702.84;5078221;28;20039;-85
2022/11/18 03:44:20;;;;;;;14.43;1.75;;;;;;;12.69;100.00;92709.09;5078546;28;20456;-85
2022/11/18 03:46:49;;;;;;;3.35;1.00;;;;;;;12.95;100.00;92698.34;5061894;28;20118;-85
2022/11/18 03:49:21;;;;;;;6.38;1.63;;;;;;;13.49;100.00;92704.69;5062105;28;20416;-86
2022/11/18 03:51:56;;;;;;;6.45;1.30;;;;;;;13.66;100.00;92702.97;5078272;28;20028;-86
2022/11/18 03:54:28;;;;;;;5.28;1.10;;;;;;;13.81;100.00;92691.03;5096994;28;20028;-86
2022/11/18 03:56:57;;;;;;;10.38;1.60;;;;;;;13.43;100.00;92706.75;5078146;28;20043;-86
2022/11/18 03:59:36;;;;;;;10.25;1.80;;;;;;;13.57;100.00;92676.75;5061597;28;20028;-86
2022/11/18 04:02:22;;;;;;;4.22;1.40;;;;;;;13.33;100.00;92674.81;5078232;28;20039;-86
2022/11/18 04:04:49;;;;;;;3.53;1.60;;;;;;;13.60;100.00;92670.81;5061612;28;20118;-86
2022/11/18 04:07:38;;;;;;;9.55;1.80;;;;;;;13.87;100.00;92658.13;5061958;28;20028;-86
2022/11/18 04:10:18;;;;;;;4.55;1.23;;;;;;;14.15;100.00;92644.28;5078496;28;20032;-86
2022/11/18 04:13:00;;;;;;;6.78;1.77;;;;;;;13.94;100.00;92642.56;5061815;28;20036;-86
2022/11/18 04:15:25;;;;;;;8.13;1.55;;;;;;;14.02;100.00;92637.47;5078497;28;20028;-86
2022/11/18 04:17:50;;;;;;;5.15;1.83;;;;;;;14.28;100.00;92640.53;5061600;28;20051;-86
2022/11/18 04:20:18;;;;;;;4.95;2.03;;;;;;;14.02;100.00;92634.84;5078099;28;20039;-86
2022/11/18 04:22:44;;;;;;;5.90;2.53;;;;;;;13.77;100.00;92626.97;5078679;28;20348;-86
2022/11/18 04:25:19;;;;;;;7.07;2.70;;;;;;;13.31;100.00;92616.53;5095781;28;20044;-86
2022/11/18 04:27:47;;;;;;;7.88;2.95;;;;;;;13.40;100.00;92612.69;5061844;28;20100;-86
2022/11/18 04:30:13;;;;;;;7.32;2.03;;;;;;;13.04;100.00;92616.03;5099405;28;20040;-86
2022/11/18 04:32:39;;;;;;;6.05;1.17;;;;;;;13.07;100.00;92610.91;5100191;28;20474;-85
2022/11/18 04:35:04;;;;;;;9.02;2.30;;;;;;;12.89;100.00;92614.78;5100121;28;20114;-86
2022/11/18 04:37:30;;;;;;;7.20;3.35;;;;;;;12.71;100.00;92625.44;5100382;28;20036;-86
2022/11/18 04:39:56;;;;;;;4.25;1.20;;;;;;;13.00;100.00;92629.03;5099570;28;20055;-86
2022/11/18 04:42:22;;;;;;;55.72;9.27;;;;;;;12.56;100.00;92630.22;5099898;28;20361;-86
2022/11/18 04:44:47;;;;;;;22.38;10.07;;;;;;;12.57;100.00;92641.50;5099667;28;20036;-86
2022/11/18 04:47:12;;;;;;;23.70;11.02;;;;;;;11.61;100.00;92667.19;5064972;28;20035;-85
2022/11/18 04:49:38;;;;;;;37.47;17.13;;;;;;;10.96;100.00;92656.75;5081987;28;20028;-86
2022/11/18 04:52:05;;;;;;;44.08;17.98;;;;;;;11.19;100.00;92680.91;5099924;28;20036;-86
2022/11/18 04:54:31;;;;;;;50.55;21.98;;;;;;;10.93;100.00;92678.34;5081317;28;20387;-86
2022/11/18 04:56:57;;;;;;;62.80;26.27;;;;;;;10.68;100.00;92691.88;5081434;28;20039;-86
2022/11/18 04:59:25;;;;;;;64.95;26.33;;;;;;;11.16;100.00;92698.00;5081913;28;20104;-86
2022/11/18 05:01:51;;;;;;;78.32;30.63;;;;;;;10.83;100.00;92702.97;5080949;28;20399;-86
2022/11/18 05:04:19;;;;;;;72.53;29.50;;;;;;;10.92;100.00;92716.09;5081328;28;20405;-85
2022/11/18 05:06:45;;;;;;;96.25;34.95;;;;;;;10.40;100.00;92720.19;5081387;28;20349;-85
2022/11/18 05:09:20;;;;;;;89.13;34.45;;;;;;;10.28;100.00;92718.94;5081016;28;20111;-86
2022/11/18 05:14:30;;;;;;;89.28;34.28;;;;;;;10.68;100.00;92730.44;5084058;28;20039;-85
2022/11/18 05:16:58;;;;;;;90.72;33.72;;;;;;;11.03;100.00;92741.66;5081142;28;20073;-85
2022/11/18 05:19:33;;;;;;;87.05;32.80;;;;;;;11.03;100.00;92751.38;5081321;28;20036;-85
2022/11/18 05:21:59;;;;;;;97.25;32.90;;;;;;;10.99;100.00;92755.69;5080963;28;20116;-85
2022/11/18 05:24:25;;;;;;;99.88;33.58;;;;;;;10.73;100.00;92757.25;5064720;28;20048;-85
2022/11/18 05:26:51;;;;;;;178.20;35.05;;;;;;;10.37;100.00;92768.69;5099079;28;20039;-85
2022/11/18 05:29:29;;;;;;;233.02;35.55;;;;;;;10.65;100.00;92778.19;5080897;28;20032;-85
2022/11/18 05:32:13;;;;;;;115.55;31.10;;;;;;;10.62;100.00;92791.91;5080272;28;20047;-85
2022/11/18 05:34:47;;;;;;;93.57;29.80;;;;;;;11.01;100.00;92796.25;5064438;28;20434;-85
2022/11/18 05:40:36;;;;;;;202.40;32.53;;;;;;;10.70;100.00;92791.13;5004322;28;20045;-85
2022/11/18 05:43:11;;;;;;;80.95;27.33;;;;;;;11.21;100.00;92795.94;5080892;28;20031;-86
2022/11/18 05:45:42;;;;;;;322.90;35.03;;;;;;;10.67;100.00;92799.59;5081013;28;20032;-86
2022/11/18 05:48:08;;;;;;;496.05;40.03;;;;;;;10.70;100.00;92799.78;5063938;28;20114;-85
2022/11/18 05:50:35;;;;;;;73.30;25.20;;;;;;;10.98;100.00;92801.31;5080091;28;20119;-85
2022/11/18 05:53:02;;;;;;;104.35;25.85;;;;;;;10.67;100.00;92800.34;5080600;28;20498;-85
2022/11/18 05:55:41;;;;;;;107.85;26.00;;;;;;;11.09;100.00;92799.16;5080624;28;20348;-86
2022/11/18 05:58:06;;;;;;;90.80;27.52;;;;;;;11.01;100.00;92796.25;5080331;28;20026;-85
2022/11/18 06:00:32;;;;;;;77.20;24.42;;;;;;;11.23;100.00;92801.63;5079500;28;20039;-85
2022/11/18 06:02:58;;;;;;;203.15;30.25;;;;;;;10.74;100.00;92798.06;5080310;28;20097;-86
2022/11/18 06:05:24;;;;;;;70.97;23.80;;;;;;;11.16;100.00;92813.34;5080615;28;20448;-85
2022/11/18 06:07:50;;;;;;;85.63;25.42;;;;;;;11.29;100.00;92805.63;5080550;28;20036;-86
2022/11/18 06:10:19;;;;;;;80.70;24.63;;;;;;;11.59;100.00;92803.91;5079675;28;20043;-86
2022/11/18 06:12:47;;;;;;;110.05;25.92;;;;;;;11.67;100.00;92801.56;5080300;28;20072;-86
2022/11/18 06:15:25;;;;;;;106.30;24.63;;;;;;;11.54;100.00;92813.78;5080320;28;20036;-85
2022/11/18 06:17:59;;;;;;;530.63;43.08;;;;;;;11.36;100.00;92820.91;5080107;28;20073;-85
2022/11/18 06:20:25;;;;;;;89.53;24.45;;;;;;;11.27;100.00;92826.94;5062958;28;20043;-86
2022/11/18 06:22:53;;;;;;;128.38;24.52;;;;;;;11.63;100.00;92825.06;5079976;28;20364;-85
2022/11/18 06:25:19;;;;;;;405.98;35.03;;;;;;;11.10;100.00;92821.66;5080081;28;20048;-85
2022/11/18 06:27:46;;;;;;;439.90;29.80;;;;;;;11.21;100.00;92840.50;5079810;28;20470;-85
2022/11/18 06:30:14;;;;;;;220.10;23.48;;;;;;;11.24;100.00;92845.13;5079544;28;20024;-86
2022/11/18 06:32:39;;;;;;;542.22;36.70;;;;;;;11.15;100.00;92850.38;5097722;28;20028;-86
2022/11/18 06:35:05;;;;;;;190.55;23.83;;;;;;;11.55;100.00;92852.06;5079477;28;20057;-86
2022/11/18 06:37:31;;;;;;;562.40;36.33;;;;;;;11.10;100.00;92856.53;5097978;28;20459;-86
2022/11/18 06:39:56;;;;;;;169.38;23.15;;;;;;;11.25;100.00;92850.03;5097447;28;20082;-85
2022/11/18 06:45:06;;;;;;;106.75;18.45;;;;;;;11.59;100.00;92856.38;5082218;28;20042;-85
2022/11/18 06:47:31;;;;;;;387.35;28.55;;;;;;;11.51;100.00;92857.13;5097787;28;20214;-85
2022/11/18 06:49:57;;;;;;;43.22;16.42;;;;;;;11.61;100.00;92863.91;5097444;28;20336;-84
2022/11/18 06:52:23;;;;;;;337.58;30.83;;;;;;;11.58;100.00;92859.28;5078295;28;20432;-84
2022/11/18 06:54:49;;;;;;;145.55;22.27;;;;;;;11.69;100.00;92855.28;5079168;28;20433;-85
2022/11/18 06:57:14;;;;;;;52.20;20.42;;;;;;;11.99;100.00;92857.25;5045844;28;20352;-86
2022/11/18 06:59:40;;;;;;;87.43;18.77;;;;;;;11.67;100.00;92862.69;5077450;28;20035;-87
2022/11/18 07:02:05;;;;;;;54.17;19.67;;;;;;;12.13;100.00;92862.31;5078790;28;20475;-87
2022/11/18 07:05:15;;;;;;;194.82;23.55;;;;;;;11.87;100.00;92868.38;5069508;28;20039;-87
2022/11/18 07:11:14;;;;;;;44.95;18.63;;;;;;;12.51;100.00;92876.56;5084077;28;20051;-86
2022/11/18 07:17:38;;;;;;;758.60;41.22;;;;;;;12.06;100.00;92872.53;5014337;28;20518;-88
2022/11/18 07:23:34;;;;;;;77.47;22.98;;;;;;;12.00;100.00;92874.53;5025048;28;20068;-89
2022/11/18 07:26:06;;;;;;;1027.57;54.33;;;;;;;11.67;100.00;92872.41;5007244;28;20049;-87
2022/11/18 07:28:37;;;;;;;187.40;23.98;;;;;;;11.64;100.00;92876.44;5015333;28;20049;-87
2022/11/18 07:31:08;;;;;;;69.80;23.77;;;;;;;12.20;100.00;92878.38;5014613;28;20048;-87
2022/11/18 07:33:34;;;;;;;71.95;23.88;;;;;;;12.51;100.00;92877.34;5001714;28;20493;-86
2022/11/18 07:39:37;;;;;;;67.55;23.75;;;;;;;12.42;100.00;92889.72;5032718;28;20048;-88
2022/11/18 07:42:05;;;;;;;62.70;24.70;;;;;;;12.00;100.00;92885.78;5018523;28;20098;-85
2022/11/18 07:44:31;;;;;;;70.32;24.73;;;;;;;11.55;100.00;92891.41;5034659;28;20099;-85
2022/11/18 07:50:22;;;;;;;49.85;21.60;;;;;;;11.84;100.00;92890.78;5003308;28;20128;-85
2022/11/18 07:57:13;;;;;;;69.78;23.80;;;;;;;11.67;100.00;92883.69;4956148;29;20063;-86
2022/11/18 07:59:45;;;;;;;65.43;23.70;;;;;;;12.54;100.00;92878.53;4956307;29;20110;-84
2022/11/18 08:02:11;;;;;;;64.82;22.88;;;;;;;12.83;100.00;92883.06;5001060;28;20100;-84
2022/11/18 08:04:37;;;;;;;52.88;23.00;;;;;;;13.10;100.00;92880.25;5022686;28;20471;-84
2022/11/18 08:07:02;;;;;;;47.65;20.65;;;;;;;13.17;100.00;92874.50;5100543;28;20093;-84
2022/11/18 08:09:27;;;;;;;47.97;21.23;;;;;;;12.89;100.00;92875.75;5100840;28;20036;-84
2022/11/18 08:11:53;;;;;;;44.42;19.77;;;;;;;12.97;100.00;92874.16;5065502;28;20038;-84
2022/11/18 08:14:20;;;;;;;43.63;19.08;;;;;;;13.27;100.00;92876.75;5082253;28;20048;-84
2022/11/18 08:16:46;;;;;;;41.65;18.95;;;;;;;13.22;100.00;92875.09;5082739;28;20081;-84
2022/11/18 08:19:11;;;;;;;45.00;19.63;;;;;;;13.23;100.00;92878.50;5100385;28;20040;-84
2022/11/18 08:21:37;;;;;;;44.55;19.42;;;;;;;13.54;100.00;92872.84;5100063;28;20437;-84
2022/11/18 08:24:03;;;;;;;44.05;20.48;;;;;;;13.26;100.00;92865.47;5100247;28;20040;-84
2022/11/18 08:26:28;;;;;;;44.80;19.90;;;;;;;13.29;100.00;92856.94;5081698;28;20044;-84
2022/11/18 08:28:54;;;;;;;42.75;21.15;;;;;;;13.66;100.00;92871.38;5081907;28;20114;-84
2022/11/18 08:31:25;;;;;;;47.03;20.77;;;;;;;13.20;100.00;92866.75;5064829;28;20036;-84
2022/11/18 08:34:04;;;;;;;42.25;20.02;;;;;;;13.52;100.00;92853.25;5065423;28;20077;-84
2022/11/18 08:36:32;;;;;;;46.70;21.52;;;;;;;13.37;100.00;92860.59;5082385;28;20044;-84
2022/11/18 08:39:10;;;;;;;50.22;22.40;;;;;;;13.39;100.00;92850.53;5080463;28;20110;-86
2022/11/18 08:42:13;;;;;;;47.72;22.17;;;;;;;14.05;100.00;92853.53;5081461;28;20126;-86
2022/11/18 08:44:39;;;;;;;45.42;20.77;;;;;;;13.71;100.00;92850.91;5099855;28;20032;-86
2022/11/18 08:51:09;;;;;;;43.65;20.90;;;;;;;12.46;100.00;92853.09;5036444;28;20072;-86
2022/11/18 08:54:11;;;;;;;50.95;22.30;;;;;;;12.63;100.00;92855.63;5061089;28;20037;-87
2022/11/18 08:56:39;;;;;;;54.75;23.02;;;;;;;12.26;100.00;92853.47;4924304;29;20063;-86
2022/11/18 08:59:12;;;;;;;50.35;22.25;;;;;;;12.44;100.00;92853.41;5073154;28;20045;-86
2022/11/18 09:01:40;;;;;;;48.35;22.52;;;;;;;12.50;100.00;92857.41;5088012;28;20344;-87
2022/11/18 09:04:06;;;;;;;55.58;22.10;;;;;;;12.63;100.00;92852.25;5082736;28;20028;-84
2022/11/18 09:06:33;;;;;;;49.22;21.90;;;;;;;12.53;100.00;92856.78;5099465;28;20251;-84
2022/11/18 09:08:59;;;;;;;47.35;21.55;;;;;;;12.61;100.00;92862.28;5065066;28;20019;-83
2022/11/18 09:11:26;;;;;;;56.13;23.92;;;;;;;12.56;100.00;92864.00;5064261;28;20317;-83
2022/11/18 09:13:56;;;;;;;52.15;22.77;;;;;;;12.28;100.00;92861.06;5080934;28;20434;-83
2022/11/18 09:16:23;;;;;;;54.97;23.60;;;;;;;12.79;100.00;92869.00;5080924;28;20036;-83
2022/11/18 09:18:50;;;;;;;52.60;24.25;;;;;;;13.13;100.00;92875.16;5064651;28;20028;-83
2022/11/18 09:21:16;;;;;;;54.65;24.85;;;;;;;13.07;100.00;92879.06;5080732;28;20039;-83
2022/11/18 09:23:41;;;;;;;56.85;25.17;;;;;;;12.94;100.00;92874.81;5099813;28;20028;-83
2022/11/18 09:26:41;;;;;;;63.78;26.00;;;;;;;12.86;100.00;92881.66;5081282;28;20085;-85
2022/11/18 09:29:07;;;;;;;92.45;43.20;;;;;;;12.64;100.00;92885.31;5077542;28;20544;-85
2022/11/18 09:32:12;;;;;;;110.60;51.40;;;;;;;12.88;100.00;92897.88;5077015;28;20068;-85
2022/11/18 09:34:38;;;;;;;59.60;26.15;;;;;;;12.70;100.00;92900.59;5039413;28;20039;-85
2022/11/18 09:37:05;;;;;;;62.30;25.27;;;;;;;13.04;100.00;92903.34;5057042;28;20033;-84
2022/11/18 09:39:33;;;;;;;144.68;68.03;;;;;;;13.84;100.00;92912.28;5060815;28;20055;-85
2022/11/18 09:42:14;;;;;;;354.17;181.40;;;;;;;14.13;100.00;92915.09;5060490;28;20028;-85
2022/11/18 09:48:17;;;;;;;78.80;37.60;;;;;;;13.35;100.00;92923.28;5049339;28;20345;-89
2022/11/18 09:50:43;;;;;;;59.97;25.02;;;;;;;13.10;100.00;92924.97;5060480;28;20090;-87
2022/11/18 09:56:30;;;;;;;94.85;46.78;;;;;;;14.19;100.00;92916.41;5078324;28;20035;-88
2022/11/18 09:59:30;;;;;;;63.55;31.25;;;;;;;14.77;100.00;92918.28;5077582;28;20032;-87
2022/11/18 10:02:03;;;;;;;59.50;27.77;;;;;;;14.55;100.00;92912.34;5043447;28;20123;-85
2022/11/18 10:04:28;;;;;;;54.72;25.95;;;;;;;14.99;100.00;92924.25;5073117;28;20054;-86
2022/11/18 10:06:54;;;;;;;49.15;23.88;;;;;;;15.31;100.00;92935.00;5080586;28;20028;-86
2022/11/18 10:09:25;;;;;;;48.40;24.33;;;;;;;15.08;100.00;92930.19;5080015;28;20020;-86
2022/11/18 10:12:00;;;;;;;61.60;32.22;;;;;;;13.67;100.00;92930.81;5063419;28;20092;-86
2022/11/18 10:14:41;;;;;;;66.45;33.35;;;;;;;13.56;100.00;92938.31;5098119;28;20356;-86
2022/11/18 10:17:10;;;;;;;65.88;31.52;;;;;;;13.20;100.00;92937.75;5098141;28;20031;-86
2022/11/18 10:20:20;;;;;;;71.45;32.88;;;;;;;13.12;100.00;92939.34;5077272;28;20345;-86
2022/11/18 10:23:39;;;;;;;76.35;35.58;;;;;;;13.24;100.00;92933.38;5088259;28;20152;-86
2022/11/18 10:26:06;;;;;;;72.88;34.33;;;;;;;13.21;100.00;92938.53;4995907;28;20077;-86
2022/11/18 10:28:37;;;;;;;77.30;35.38;;;;;;;13.49;100.00;92933.56;4980298;28;20518;-86
2022/11/18 10:31:34;;;;;;;79.45;33.75;;;;;;;13.64;100.00;92934.88;4979235;28;20483;-86
2022/11/18 10:34:03;;;;;;;63.15;31.23;;;;;;;14.66;100.00;92931.13;4996100;28;20455;-86
2022/11/18 10:40:08;;;;;;;60.83;33.05;;;;;;;14.86;100.00;92931.41;5077239;28;20392;-85
2022/11/18 10:42:42;;;;;;;63.65;30.35;;;;;;;14.00;100.00;92941.38;5061806;28;20038;-86
2022/11/18 10:45:26;;;;;;;62.47;30.35;;;;;;;13.59;100.00;92950.09;5077173;28;20033;-86
2022/11/18 10:48:13;;;;;;;70.55;33.30;;;;;;;13.45;100.00;92953.72;5059356;28;20043;-86
2022/11/18 10:54:43;;;;;;;84.65;38.40;;;;;;;13.51;100.00;92949.06;4977291;28;20038;-86
2022/11/18 10:57:30;;;;;;;82.72;37.67;;;;;;;13.67;100.00;92943.97;5066751;28;20065;-87
2022/11/18 11:00:04;;;;;;;77.45;35.42;;;;;;;13.97;100.00;92943.88;5078504;28;20115;-86
2022/11/18 11:06:37;;;;;;;;;;;;;;;;;;;;;
2022/11/18 11:13:02;;;;;;;54.08;25.60;;;;;;;12.90;100.00;92953.53;5034186;28;20044;-86
2022/11/18 11:16:32;;;;;;;51.92;25.13;;;;;;;13.49;100.00;92959.13;4975717;28;20120;-86
2022/11/18 11:33:11;;;;;;;102.32;53.45;;;;;;;14.10;100.00;92965.78;4955984;28;20475;-86
2022/11/18 11:35:55;;;;;;;51.38;24.42;;;;;;;14.55;100.00;92974.78;4937376;29;20047;-86
2022/11/18 11:38:41;;;;;;;50.40;23.58;;;;;;;15.31;100.00;92960.63;4936851;29;20032;-86
2022/11/18 11:41:48;;;;;;;47.03;23.83;;;;;;;14.61;100.00;92960.34;5008786;28;20053;-86
2022/11/18 12:18:11;;;;;;;55.90;27.73;;;;;;;15.25;100.00;92962.72;4994860;28;20065;-85
2022/11/18 12:27:59;;;;;;;56.25;26.00;;;;;;;14.32;100.00;92954.13;4930920;29;20079;-84
2022/11/18 12:30:24;;;;;;;56.35;26.45;;;;;;;14.59;100.00;92945.94;4955173;28;20058;-84
2022/11/18 12:32:55;;;;;;;54.80;27.42;;;;;;;14.73;100.00;92937.75;5035802;28;20045;-84
2022/11/18 12:35:23;;;;;;;64.63;28.95;;;;;;;14.77;100.00;92938.63;5058604;28;20400;-83
2022/11/18 12:37:51;;;;;;;46.28;22.75;;;;;;;14.68;100.00;92939.47;5058405;28;20053;-83
2022/11/18 12:40:42;;;;;;;43.90;22.67;;;;;;;14.88;100.00;92941.59;5075790;28;20063;-84
2022/11/18 12:47:29;;;;;;;;;;;;;;;;;;;;;
2022/11/18 12:50:23;;;;;;;41.20;20.45;;;;;;;15.54;100.00;92950.38;5094198;28;20322;-83
2022/11/18 12:53:21;;;;;;;;;;;;;;;;;;;;;
2022/11/18 12:55:47;;;;;;;62.40;31.40;;;;;;;15.11;100.00;92955.13;5017218;28;20037;-83
2022/11/18 13:05:09;;;;;;;51.13;27.15;;;;;;;14.63;100.00;92960.00;5099524;28;20031;-83
2022/11/18 13:08:19;;;;;;;56.22;28.02;;;;;;;13.99;100.00;92966.19;5064620;28;20020;-83
2022/11/18 13:17:50;;;;;;;53.00;25.95;;;;;;;14.56;100.00;92961.31;5083960;28;20352;-83
2022/11/18 13:20:17;;;;;;;57.80;27.67;;;;;;;15.11;100.00;92952.47;5080789;28;20039;-84
2022/11/18 13:25:36;;;;;;;48.17;25.35;;;;;;;15.53;100.00;92962.03;5083884;28;20386;-84
2022/11/18 13:28:21;;;;;;;48.25;24.35;;;;;;;15.51;100.00;92961.59;5081281;28;20027;-83
2022/11/18 13:30:52;;;;;;;50.85;24.60;;;;;;;15.67;100.00;92970.34;5059944;28;20337;-83
2022/11/18 13:33:17;;;;;;;44.38;22.85;;;;;;;15.80;100.00;92976.38;5064505;28;20035;-83
2022/11/18 13:35:43;;;;;;;49.72;24.80;;;;;;;15.84;100.00;92979.13;5081296;28;20024;-84
2022/11/18 13:38:20;;;;;;;40.85;20.90;;;;;;;15.74;100.00;92979.56;5081198;28;20349;-84
2022/11/18 13:41:03;;;;;;;40.92;21.35;;;;;;;15.73;100.00;92989.38;5063989;28;20036;-84
2022/11/18 13:43:29;;;;;;;45.33;23.08;;;;;;;15.72;100.00;92987.84;5080826;28;20348;-84
2022/11/18 13:45:55;;;;;;;41.38;22.30;;;;;;;15.72;100.00;92990.47;5098772;28;20055;-84
2022/11/18 13:48:21;;;;;;;45.05;21.50;;;;;;;15.60;100.00;92982.59;5064178;28;20028;-84
2022/11/18 13:50:52;;;;;;;44.28;22.45;;;;;;;15.63;100.00;92989.84;5063743;28;20038;-84
2022/11/18 13:53:33;;;;;;;40.83;22.10;;;;;;;15.32;100.00;92988.53;5081844;28;20062;-85
2022/11/18 13:56:00;;;;;;;46.00;23.58;;;;;;;15.50;100.00;92992.47;5064287;28;20024;-84
2022/11/18 13:58:44;;;;;;;45.08;22.73;;;;;;;15.49;100.00;92998.09;5080681;28;20122;-84
2022/11/18 14:01:24;;;;;;;44.70;22.85;;;;;;;15.23;100.00;92997.34;5063279;28;20032;-84